sensor_id;sensor_type;location;lat;lon;timestamp;temperature;humidity
3794;DHT22;1912;51.358;12.282;2023-04-15T03:45:29;6.40;1.00
3794;DHT22;1912;51.358;12.282;2023-04-15T03:47:54;6.40;1.00
3794;DHT22;1912;51.358;12.282;2023-04-15T03:50:20;6.40;1.00
3794;DHT22;1912;51.358;12.282;2023-04-15T03:52:46;6.40;1.00
3794;DHT22;1912;51.358;12.282;2023-04-15T03:55:11;6.50;1.00
3794;DHT22;1912;51.358;12.282;2023-04-15T03:57:37;6.50;1.00
3794;DHT22;1912;51.358;12.282;2023-04-15T04:00:04;6.50;1.00
3794;DHT22;1912;51.358;12.282;2023-04-15T04:02:30;6.40;1.00
3794;DHT22;1912;51.358;12.282;2023-04-15T04:04:56;6.50;1.00
3794;DHT22;1912;51.358;12.282;2023-04-15T04:07:22;6.40;1.00
3794;DHT22;1912;51.358;12.282;2023-04-15T04:09:48;6.50;1.00
3794;DHT22;1912;51.358;12.282;2023-04-15T04:12:14;6.50;1.00
3794;DHT22;1912;51.358;12.282;2023-04-15T04:14:40;6.50;1.00
3794;DHT22;1912;51.358;12.282;2023-04-15T04:17:05;6.50;1.00
3794;DHT22;1912;51.358;12.282;2023-04-15T04:19:31;6.50;1.00
3794;DHT22;1912;51.358;12.282;2023-04-15T04:21:57;6.50;1.00
3794;DHT22;1912;51.358;12.282;2023-04-15T04:24:22;6.40;1.00
3794;DHT22;1912;51.358;12.282;2023-04-15T04:26:48;6.40;1.00
3794;DHT22;1912;51.358;12.282;2023-04-15T04:29:14;6.40;1.00
3794;DHT22;1912;51.358;12.282;2023-04-15T04:31:39;6.40;1.00
3794;DHT22;1912;51.358;12.282;2023-04-15T04:34:05;6.50;1.00
3794;DHT22;1912;51.358;12.282;2023-04-15T04:36:31;6.50;1.00
3794;DHT22;1912;51.358;12.282;2023-04-15T04:38:57;6.50;1.00
3794;DHT22;1912;51.358;12.282;2023-04-15T04:41:22;6.50;1.00
3794;DHT22;1912;51.358;12.282;2023-04-15T04:43:48;6.50;1.00
3794;DHT22;1912;51.358;12.282;2023-04-15T04:46:13;6.50;1.00
3794;DHT22;1912;51.358;12.282;2023-04-15T04:48:39;6.50;1.00
3794;DHT22;1912;51.358;12.282;2023-04-15T04:51:05;6.50;1.00
3794;DHT22;1912;51.358;12.282;2023-04-15T04:53:32;6.50;1.00
3794;DHT22;1912;51.358;12.282;2023-04-15T04:55:57;6.50;1.00
3794;DHT22;1912;51.358;12.282;2023-04-15T04:58:23;6.50;1.00
3794;DHT22;1912;51.358;12.282;2023-04-15T05:00:49;6.50;1.00
3794;DHT22;1912;51.358;12.282;2023-04-15T05:03:15;6.50;1.00
3794;DHT22;1912;51.358;12.282;2023-04-15T05:05:40;6.50;1.00
3794;DHT22;1912;51.358;12.282;2023-04-15T05:08:06;6.50;1.00
3794;DHT22;1912;51.358;12.282;2023-04-15T05:10:32;6.50;1.00
3794;DHT22;1912;51.358;12.282;2023-04-15T05:12:58;6.50;1.00
3794;DHT22;1912;51.358;12.282;2023-04-15T05:15:23;6.50;1.00
3794;DHT22;1912;51.358;12.282;2023-04-15T05:17:49;6.50;1.00
3794;DHT22;1912;51.358;12.282;2023-04-15T05:20:15;6.50;1.00
3794;DHT22;1912;51.358;12.282;2023-04-15T05:22:41;6.50;1.00
3794;DHT22;1912;51.358;12.282;2023-04-15T05:25:07;6.50;1.00
3794;DHT22;1912;51.358;12.282;2023-04-15T05:27:33;6.60;1.00
3794;DHT22;1912;51.358;12.282;2023-04-15T05:29:59;6.60;1.00
3794;DHT22;1912;51.358;12.282;2023-04-15T05:32:24;6.60;1.00
3794;DHT22;1912;51.358;12.282;2023-04-15T05:34:50;6.60;1.00
3794;DHT22;1912;51.358;12.282;2023-04-15T05:37:16;6.60;1.00
3794;DHT22;1912;51.358;12.282;2023-04-15T05:39:42;6.60;1.00
3794;DHT22;1912;51.358;12.282;2023-04-15T05:42:07;6.70;1.00
3794;DHT22;1912;51.358;12.282;2023-04-15T05:44:33;6.70;1.00
3794;DHT22;1912;51.358;12.282;2023-04-15T05:46:59;6.70;1.00
3794;DHT22;1912;51.358;12.282;2023-04-15T05:49:25;6.70;1.00
3794;DHT22;1912;51.358;12.282;2023-04-15T05:51:50;6.70;1.00
3794;DHT22;1912;51.358;12.282;2023-04-15T05:54:16;6.70;1.00
3794;DHT22;1912;51.358;12.282;2023-04-15T05:56:43;6.70;1.00
3794;DHT22;1912;51.358;12.282;2023-04-15T05:59:08;6.70;1.00
3794;DHT22;1912;51.358;12.282;2023-04-15T06:01:34;6.70;1.00
3794;DHT22;1912;51.358;12.282;2023-04-15T06:04:00;6.70;1.00
3794;DHT22;1912;51.358;12.282;2023-04-15T06:06:26;6.70;1.00
3794;DHT22;1912;51.358;12.282;2023-04-15T06:08:52;6.70;1.00
3794;DHT22;1912;51.358;12.282;2023-04-15T06:11:19;6.70;1.00
3794;DHT22;1912;51.358;12.282;2023-04-15T06:13:45;6.80;1.00
3794;DHT22;1912;51.358;12.282;2023-04-15T06:16:11;6.70;1.00
3794;DHT22;1912;51.358;12.282;2023-04-15T06:18:36;6.80;1.00
3794;DHT22;1912;51.358;12.282;2023-04-15T06:21:02;6.80;1.00
3794;DHT22;1912;51.358;12.282;2023-04-15T06:23:28;6.80;1.00
3794;DHT22;1912;51.358;12.282;2023-04-15T06:25:54;6.80;1.00
3794;DHT22;1912;51.358;12.282;2023-04-15T06:28:20;6.90;1.00
3794;DHT22;1912;51.358;12.282;2023-04-15T06:30:45;6.80;1.00
3794;DHT22;1912;51.358;12.282;2023-04-15T06:33:11;6.90;1.00
3794;DHT22;1912;51.358;12.282;2023-04-15T06:35:37;6.90;1.00
3794;DHT22;1912;51.358;12.282;2023-04-15T06:38:03;6.90;1.00
3794;DHT22;1912;51.358;12.282;2023-04-15T06:40:29;6.90;1.00
3794;DHT22;1912;51.358;12.282;2023-04-15T06:42:55;6.90;1.00
3794;DHT22;1912;51.358;12.282;2023-04-15T06:45:21;6.90;1.00
3794;DHT22;1912;51.358;12.282;2023-04-15T06:47:46;6.90;1.00
3794;DHT22;1912;51.358;12.282;2023-04-15T06:50:12;6.90;1.00
3794;DHT22;1912;51.358;12.282;2023-04-15T06:52:38;7.00;1.00
3794;DHT22;1912;51.358;12.282;2023-04-15T06:55:05;7.00;1.00
3794;DHT22;1912;51.358;12.282;2023-04-15T06:57:32;7.00;1.00
3794;DHT22;1912;51.358;12.282;2023-04-15T06:59:57;7.00;1.00
3794;DHT22;1912;51.358;12.282;2023-04-15T07:02:23;7.00;1.00
3794;DHT22;1912;51.358;12.282;2023-04-15T07:04:49;7.00;1.00
3794;DHT22;1912;51.358;12.282;2023-04-15T07:07:15;7.00;1.00
3794;DHT22;1912;51.358;12.282;2023-04-15T07:09:42;7.00;1.00
3794;DHT22;1912;51.358;12.282;2023-04-15T07:12:08;7.00;1.00
3794;DHT22;1912;51.358;12.282;2023-04-15T07:14:33;7.10;1.00
3794;DHT22;1912;51.358;12.282;2023-04-15T07:16:59;7.10;1.00
3794;DHT22;1912;51.358;12.282;2023-04-15T07:19:24;7.10;1.00
3794;DHT22;1912;51.358;12.282;2023-04-15T07:21:50;7.10;1.00
3794;DHT22;1912;51.358;12.282;2023-04-15T07:24:16;7.10;1.00
3794;DHT22;1912;51.358;12.282;2023-04-15T07:26:44;7.10;1.00
3794;DHT22;1912;51.358;12.282;2023-04-15T07:29:09;7.20;1.00
3794;DHT22;1912;51.358;12.282;2023-04-15T07:31:35;7.20;1.00
3794;DHT22;1912;51.358;12.282;2023-04-15T07:34:02;7.20;1.00
3794;DHT22;1912;51.358;12.282;2023-04-15T07:36:28;7.20;1.00
3794;DHT22;1912;51.358;12.282;2023-04-15T07:38:54;7.20;1.00
3794;DHT22;1912;51.358;12.282;2023-04-15T07:41:20;7.20;1.00
3794;DHT22;1912;51.358;12.282;2023-04-15T07:43:46;7.20;1.00
3794;DHT22;1912;51.358;12.282;2023-04-15T07:46:13;7.20;1.00
3794;DHT22;1912;51.358;12.282;2023-04-15T07:48:39;7.30;1.00
3794;DHT22;1912;51.358;12.282;2023-04-15T07:51:05;7.30;1.00
3794;DHT22;1912;51.358;12.282;2023-04-15T07:53:30;7.20;1.00
3794;DHT22;1912;51.358;12.282;2023-04-15T07:55:57;7.30;1.00
3794;DHT22;1912;51.358;12.282;2023-04-15T07:58:23;7.30;1.00
3794;DHT22;1912;51.358;12.282;2023-04-15T08:00:49;7.30;1.00
3794;DHT22;1912;51.358;12.282;2023-04-15T08:03:15;7.40;1.00
3794;DHT22;1912;51.358;12.282;2023-04-15T08:05:40;7.40;1.00
3794;DHT22;1912;51.358;12.282;2023-04-15T08:08:06;7.40;1.00
3794;DHT22;1912;51.358;12.282;2023-04-15T08:10:32;7.40;1.00
3794;DHT22;1912;51.358;12.282;2023-04-15T08:12:58;7.40;1.00
3794;DHT22;1912;51.358;12.282;2023-04-15T08:15:24;7.50;1.00
3794;DHT22;1912;51.358;12.282;2023-04-15T08:17:50;7.50;1.00
3794;DHT22;1912;51.358;12.282;2023-04-15T08:20:15;7.50;1.00
3794;DHT22;1912;51.358;12.282;2023-04-15T08:22:41;7.50;1.00
3794;DHT22;1912;51.358;12.282;2023-04-15T08:25:07;7.50;1.00
3794;DHT22;1912;51.358;12.282;2023-04-15T08:27:33;7.50;1.00
3794;DHT22;1912;51.358;12.282;2023-04-15T08:29:59;7.50;1.00
3794;DHT22;1912;51.358;12.282;2023-04-15T08:32:25;7.60;1.00
3794;DHT22;1912;51.358;12.282;2023-04-15T08:34:51;7.60;1.00
3794;DHT22;1912;51.358;12.282;2023-04-15T08:37:17;7.60;1.00
3794;DHT22;1912;51.358;12.282;2023-04-15T08:39:43;7.60;1.00
3794;DHT22;1912;51.358;12.282;2023-04-15T08:42:16;7.60;1.00
3794;DHT22;1912;51.358;12.282;2023-04-15T08:44:42;7.70;1.00
3794;DHT22;1912;51.358;12.282;2023-04-15T08:47:12;7.70;1.00
3794;DHT22;1912;51.358;12.282;2023-04-15T08:49:39;7.70;1.00
3794;DHT22;1912;51.358;12.282;2023-04-15T08:52:07;7.70;1.00
3794;DHT22;1912;51.358;12.282;2023-04-15T08:54:34;7.70;1.00
3794;DHT22;1912;51.358;12.282;2023-04-15T08:57:00;7.90;1.00
3794;DHT22;1912;51.358;12.282;2023-04-15T08:59:28;7.80;1.00
3794;DHT22;1912;51.358;12.282;2023-04-15T09:01:56;7.80;1.00
3794;DHT22;1912;51.358;12.282;2023-04-15T09:04:23;7.90;1.00
3794;DHT22;1912;51.358;12.282;2023-04-15T09:06:48;7.90;1.00
3794;DHT22;1912;51.358;12.282;2023-04-15T09:09:14;7.90;1.00
3794;DHT22;1912;51.358;12.282;2023-04-15T09:11:40;8.10;1.00
3794;DHT22;1912;51.358;12.282;2023-04-15T09:14:06;8.00;1.00
3794;DHT22;1912;51.358;12.282;2023-04-15T09:16:57;8.10;1.00
3794;DHT22;1912;51.358;12.282;2023-04-15T09:19:24;8.10;1.00
3794;DHT22;1912;51.358;12.282;2023-04-15T09:21:52;8.10;1.00
3794;DHT22;1912;51.358;12.282;2023-04-15T09:24:19;8.20;1.00
3794;DHT22;1912;51.358;12.282;2023-04-15T09:26:44;8.20;1.00
3794;DHT22;1912;51.358;12.282;2023-04-15T09:29:11;8.20;1.00
3794;DHT22;1912;51.358;12.282;2023-04-15T09:31:38;8.30;1.00
3794;DHT22;1912;51.358;12.282;2023-04-15T09:34:05;8.30;1.00
3794;DHT22;1912;51.358;12.282;2023-04-15T09:36:51;8.30;1.00
3794;DHT22;1912;51.358;12.282;2023-04-15T09:39:21;8.40;1.00
3794;DHT22;1912;51.358;12.282;2023-04-15T09:42:04;8.40;1.00
3794;DHT22;1912;51.358;12.282;2023-04-15T09:44:32;8.40;1.00
3794;DHT22;1912;51.358;12.282;2023-04-15T09:46:58;8.40;1.00
3794;DHT22;1912;51.358;12.282;2023-04-15T09:49:24;8.50;1.00
3794;DHT22;1912;51.358;12.282;2023-04-15T09:51:49;8.50;1.00
3794;DHT22;1912;51.358;12.282;2023-04-15T09:54:20;8.60;1.00
3794;DHT22;1912;51.358;12.282;2023-04-15T09:56:45;8.60;1.00
3794;DHT22;1912;51.358;12.282;2023-04-15T09:59:11;8.60;1.00
3794;DHT22;1912;51.358;12.282;2023-04-15T10:01:37;8.60;1.00
3794;DHT22;1912;51.358;12.282;2023-04-15T10:04:05;8.70;1.00
3794;DHT22;1912;51.358;12.282;2023-04-15T10:06:31;8.70;1.00
3794;DHT22;1912;51.358;12.282;2023-04-15T10:08:58;8.70;1.00
3794;DHT22;1912;51.358;12.282;2023-04-15T10:11:29;8.70;1.00
3794;DHT22;1912;51.358;12.282;2023-04-15T10:13:57;8.80;1.00
3794;DHT22;1912;51.358;12.282;2023-04-15T10:16:26;8.80;1.00
3794;DHT22;1912;51.358;12.282;2023-04-15T10:18:56;8.80;1.00
3794;DHT22;1912;51.358;12.282;2023-04-15T10:21:23;8.80;1.00
3794;DHT22;1912;51.358;12.282;2023-04-15T10:23:50;8.90;1.00
3794;DHT22;1912;51.358;12.282;2023-04-15T10:26:16;8.90;1.00
3794;DHT22;1912;51.358;12.282;2023-04-15T10:28:45;8.90;1.00
3794;DHT22;1912;51.358;12.282;2023-04-15T10:31:14;9.00;1.00
3794;DHT22;1912;51.358;12.282;2023-04-15T10:33:42;9.00;1.00
3794;DHT22;1912;51.358;12.282;2023-04-15T10:36:09;9.10;1.00
3794;DHT22;1912;51.358;12.282;2023-04-15T10:38:40;9.00;1.00
3794;DHT22;1912;51.358;12.282;2023-04-15T10:41:26;9.00;1.00
3794;DHT22;1912;51.358;12.282;2023-04-15T10:44:04;9.00;1.00
3794;DHT22;1912;51.358;12.282;2023-04-15T10:46:38;9.00;1.00
3794;DHT22;1912;51.358;12.282;2023-04-15T10:49:16;9.10;1.00
3794;DHT22;1912;51.358;12.282;2023-04-15T10:51:58;9.10;1.00
3794;DHT22;1912;51.358;12.282;2023-04-15T10:59:37;9.20;1.00
3794;DHT22;1912;51.358;12.282;2023-04-15T11:02:07;9.20;1.00
3794;DHT22;1912;51.358;12.282;2023-04-15T11:04:52;9.20;1.00
3794;DHT22;1912;51.358;12.282;2023-04-15T11:07:37;9.20;1.00
3794;DHT22;1912;51.358;12.282;2023-04-15T11:12:43;9.30;1.00
3794;DHT22;1912;51.358;12.282;2023-04-15T11:15:29;9.40;1.00
3794;DHT22;1912;51.358;12.282;2023-04-15T11:18:17;9.40;1.00
3794;DHT22;1912;51.358;12.282;2023-04-15T11:23:16;9.50;1.00
3794;DHT22;1912;51.358;12.282;2023-04-15T11:25:43;9.50;1.00
3794;DHT22;1912;51.358;12.282;2023-04-15T11:28:10;9.50;1.00
3794;DHT22;1912;51.358;12.282;2023-04-15T11:30:37;9.60;1.00
3794;DHT22;1912;51.358;12.282;2023-04-15T11:33:05;9.60;1.00
3794;DHT22;1912;51.358;12.282;2023-04-15T11:35:33;9.60;1.00
3794;DHT22;1912;51.358;12.282;2023-04-15T11:38:04;9.60;1.00
3794;DHT22;1912;51.358;12.282;2023-04-15T11:40:33;9.70;1.00
3794;DHT22;1912;51.358;12.282;2023-04-15T11:43:11;9.70;1.00
3794;DHT22;1912;51.358;12.282;2023-04-15T11:45:56;9.70;1.00
3794;DHT22;1912;51.358;12.282;2023-04-15T11:48:30;9.70;1.00
3794;DHT22;1912;51.358;12.282;2023-04-15T11:51:05;9.80;1.00
3794;DHT22;1912;51.358;12.282;2023-04-15T11:53:45;9.80;1.00
3794;DHT22;1912;51.358;12.282;2023-04-15T11:56:23;9.80;1.00
3794;DHT22;1912;51.358;12.282;2023-04-15T11:58:55;9.80;1.00
3794;DHT22;1912;51.358;12.282;2023-04-15T12:01:36;9.80;1.00
3794;DHT22;1912;51.358;12.282;2023-04-15T12:04:17;9.80;1.00
3794;DHT22;1912;51.358;12.282;2023-04-15T12:06:47;9.80;1.00
3794;DHT22;1912;51.358;12.282;2023-04-15T12:09:17;9.80;1.00
3794;DHT22;1912;51.358;12.282;2023-04-15T12:11:45;9.80;1.00
3794;DHT22;1912;51.358;12.282;2023-04-15T12:14:23;9.80;1.00
3794;DHT22;1912;51.358;12.282;2023-04-15T12:16:56;9.80;1.00
3794;DHT22;1912;51.358;12.282;2023-04-15T12:19:33;9.80;1.00
3794;DHT22;1912;51.358;12.282;2023-04-15T12:22:05;9.80;1.00
3794;DHT22;1912;51.358;12.282;2023-04-15T12:24:34;9.90;1.00
3794;DHT22;1912;51.358;12.282;2023-04-15T12:27:03;9.90;1.00
3794;DHT22;1912;51.358;12.282;2023-04-15T12:29:33;9.90;1.00
3794;DHT22;1912;51.358;12.282;2023-04-15T12:32:06;9.80;1.00
3794;DHT22;1912;51.358;12.282;2023-04-15T12:34:38;9.80;1.00
3794;DHT22;1912;51.358;12.282;2023-04-15T12:37:07;9.90;1.00
3794;DHT22;1912;51.358;12.282;2023-04-15T12:39:38;9.90;1.00
3794;DHT22;1912;51.358;12.282;2023-04-15T12:42:06;10.00;1.00
3794;DHT22;1912;51.358;12.282;2023-04-15T12:44:32;10.00;1.00
3794;DHT22;1912;51.358;12.282;2023-04-15T12:46:59;10.10;1.00
3794;DHT22;1912;51.358;12.282;2023-04-15T12:49:25;10.00;1.00
3794;DHT22;1912;51.358;12.282;2023-04-15T12:51:56;10.00;1.00
3794;DHT22;1912;51.358;12.282;2023-04-15T12:54:23;10.10;1.00
3794;DHT22;1912;51.358;12.282;2023-04-15T12:56:50;10.20;1.00
3794;DHT22;1912;51.358;12.282;2023-04-15T12:59:16;10.20;1.00
3794;DHT22;1912;51.358;12.282;2023-04-15T13:01:45;10.10;1.00
3794;DHT22;1912;51.358;12.282;2023-04-15T13:04:11;10.20;1.00
3794;DHT22;1912;51.358;12.282;2023-04-15T13:06:37;10.20;1.00
3794;DHT22;1912;51.358;12.282;2023-04-15T13:09:03;10.20;1.00
3794;DHT22;1912;51.358;12.282;2023-04-15T13:11:30;10.30;1.00
3794;DHT22;1912;51.358;12.282;2023-04-15T13:13:59;10.30;1.00
3794;DHT22;1912;51.358;12.282;2023-04-15T13:16:25;10.30;1.00
3794;DHT22;1912;51.358;12.282;2023-04-15T13:18:51;10.30;1.00
3794;DHT22;1912;51.358;12.282;2023-04-15T13:21:18;10.30;1.00
3794;DHT22;1912;51.358;12.282;2023-04-15T13:23:44;10.40;1.00
3794;DHT22;1912;51.358;12.282;2023-04-15T13:26:09;10.30;1.00
3794;DHT22;1912;51.358;12.282;2023-04-15T13:28:35;10.30;1.00
3794;DHT22;1912;51.358;12.282;2023-04-15T13:31:01;10.40;1.00
3794;DHT22;1912;51.358;12.282;2023-04-15T13:33:27;10.40;1.00
3794;DHT22;1912;51.358;12.282;2023-04-15T13:35:53;10.30;1.00
3794;DHT22;1912;51.358;12.282;2023-04-15T13:38:18;10.30;1.00
3794;DHT22;1912;51.358;12.282;2023-04-15T13:40:44;10.40;1.00
3794;DHT22;1912;51.358;12.282;2023-04-15T13:43:10;10.40;1.00
3794;DHT22;1912;51.358;12.282;2023-04-15T13:45:36;10.40;1.00
3794;DHT22;1912;51.358;12.282;2023-04-15T13:48:02;10.40;1.00
3794;DHT22;1912;51.358;12.282;2023-04-15T13:50:28;10.40;1.00
3794;DHT22;1912;51.358;12.282;2023-04-15T13:52:53;10.40;1.00
3794;DHT22;1912;51.358;12.282;2023-04-15T13:55:19;10.40;1.00
3794;DHT22;1912;51.358;12.282;2023-04-15T13:57:45;10.40;1.00
3794;DHT22;1912;51.358;12.282;2023-04-15T14:00:11;10.40;1.00
3794;DHT22;1912;51.358;12.282;2023-04-15T14:02:39;10.40;1.00
3794;DHT22;1912;51.358;12.282;2023-04-15T14:05:06;10.40;1.00
3794;DHT22;1912;51.358;12.282;2023-04-15T14:07:32;10.30;1.00
3794;DHT22;1912;51.358;12.282;2023-04-15T14:09:58;10.40;1.00
3794;DHT22;1912;51.358;12.282;2023-04-15T14:12:24;10.40;1.00
3794;DHT22;1912;51.358;12.282;2023-04-15T14:14:49;10.50;1.00
3794;DHT22;1912;51.358;12.282;2023-04-15T14:17:15;10.50;1.00
3794;DHT22;1912;51.358;12.282;2023-04-15T14:19:41;10.50;1.00
3794;DHT22;1912;51.358;12.282;2023-04-15T14:22:06;10.50;1.00
3794;DHT22;1912;51.358;12.282;2023-04-15T14:24:32;10.50;1.00
3794;DHT22;1912;51.358;12.282;2023-04-15T14:26:58;10.50;1.00
3794;DHT22;1912;51.358;12.282;2023-04-15T14:29:24;10.50;1.00
3794;DHT22;1912;51.358;12.282;2023-04-15T14:31:49;10.40;1.00
3794;DHT22;1912;51.358;12.282;2023-04-15T14:34:16;10.40;1.00
3794;DHT22;1912;51.358;12.282;2023-04-15T14:36:42;10.40;1.00
3794;DHT22;1912;51.358;12.282;2023-04-15T14:39:08;10.40;1.00
3794;DHT22;1912;51.358;12.282;2023-04-15T14:41:34;10.40;1.00
3794;DHT22;1912;51.358;12.282;2023-04-15T14:43:59;10.40;1.00
3794;DHT22;1912;51.358;12.282;2023-04-15T14:46:25;10.40;1.00
3794;DHT22;1912;51.358;12.282;2023-04-15T17:38:41;10.50;1.00
3794;DHT22;1912;51.358;12.282;2023-04-15T17:41:06;10.40;1.00
3794;DHT22;1912;51.358;12.282;2023-04-15T17:43:32;10.40;1.00
3794;DHT22;1912;51.358;12.282;2023-04-15T17:45:58;10.30;1.00
3794;DHT22;1912;51.358;12.282;2023-04-15T17:48:24;10.30;1.00
3794;DHT22;1912;51.358;12.282;2023-04-15T17:50:50;10.30;1.00
3794;DHT22;1912;51.358;12.282;2023-04-15T17:53:16;10.30;1.00
3794;DHT22;1912;51.358;12.282;2023-04-15T17:55:42;10.30;1.00
3794;DHT22;1912;51.358;12.282;2023-04-15T17:58:07;10.30;1.00
3794;DHT22;1912;51.358;12.282;2023-04-15T18:00:33;10.30;1.00
3794;DHT22;1912;51.358;12.282;2023-04-15T18:02:59;10.20;1.00
3794;DHT22;1912;51.358;12.282;2023-04-15T18:05:25;10.10;1.00
3794;DHT22;1912;51.358;12.282;2023-04-15T18:07:51;10.20;1.00
3794;DHT22;1912;51.358;12.282;2023-04-15T18:10:17;10.20;1.00
3794;DHT22;1912;51.358;12.282;2023-04-15T18:12:42;10.10;1.00
3794;DHT22;1912;51.358;12.282;2023-04-15T18:15:08;10.10;1.00
3794;DHT22;1912;51.358;12.282;2023-04-15T18:17:35;10.10;1.00
3794;DHT22;1912;51.358;12.282;2023-04-15T18:20:01;10.10;1.00
3794;DHT22;1912;51.358;12.282;2023-04-15T18:22:26;10.00;1.00
3794;DHT22;1912;51.358;12.282;2023-04-15T18:24:52;10.00;1.00
3794;DHT22;1912;51.358;12.282;2023-04-15T18:27:19;10.00;1.00
3794;DHT22;1912;51.358;12.282;2023-04-15T18:29:45;10.00;1.00
3794;DHT22;1912;51.358;12.282;2023-04-15T18:32:10;10.00;1.00
3794;DHT22;1912;51.358;12.282;2023-04-15T18:34:36;10.00;1.00
3794;DHT22;1912;51.358;12.282;2023-04-15T18:37:02;10.00;1.00
3794;DHT22;1912;51.358;12.282;2023-04-15T18:39:29;10.00;1.00
3794;DHT22;1912;51.358;12.282;2023-04-15T18:41:55;10.00;1.00
3794;DHT22;1912;51.358;12.282;2023-04-15T18:44:21;10.00;1.00
3794;DHT22;1912;51.358;12.282;2023-04-15T18:46:48;10.00;1.00
3794;DHT22;1912;51.358;12.282;2023-04-15T18:49:14;10.00;1.00
3794;DHT22;1912;51.358;12.282;2023-04-15T18:51:39;10.00;1.00
3794;DHT22;1912;51.358;12.282;2023-04-15T18:54:05;10.00;1.00
3794;DHT22;1912;51.358;12.282;2023-04-15T18:56:31;10.00;1.00
3794;DHT22;1912;51.358;12.282;2023-04-15T18:58:57;10.00;1.00
3794;DHT22;1912;51.358;12.282;2023-04-15T19:01:22;10.00;1.00
3794;DHT22;1912;51.358;12.282;2023-04-15T19:03:48;10.00;1.00
3794;DHT22;1912;51.358;12.282;2023-04-15T19:06:14;10.00;1.00
3794;DHT22;1912;51.358;12.282;2023-04-15T19:08:40;10.00;1.00
3794;DHT22;1912;51.358;12.282;2023-04-15T19:11:06;10.00;1.00
3794;DHT22;1912;51.358;12.282;2023-04-15T19:13:32;10.00;1.00
3794;DHT22;1912;51.358;12.282;2023-04-15T19:15:58;10.00;1.00
3794;DHT22;1912;51.358;12.282;2023-04-15T19:18:24;10.00;1.00
3794;DHT22;1912;51.358;12.282;2023-04-15T19:20:50;10.00;1.00
3794;DHT22;1912;51.358;12.282;2023-04-15T19:23:17;10.00;1.00
3794;DHT22;1912;51.358;12.282;2023-04-15T19:25:42;10.00;1.00
3794;DHT22;1912;51.358;12.282;2023-04-15T19:28:08;10.00;1.00
3794;DHT22;1912;51.358;12.282;2023-04-15T19:30:34;10.00;1.00
3794;DHT22;1912;51.358;12.282;2023-04-15T19:33:00;9.90;1.00
3794;DHT22;1912;51.358;12.282;2023-04-15T19:35:26;10.00;1.00
3794;DHT22;1912;51.358;12.282;2023-04-15T19:37:52;9.90;1.00
3794;DHT22;1912;51.358;12.282;2023-04-15T19:40:17;9.90;1.00
3794;DHT22;1912;51.358;12.282;2023-04-15T19:42:43;9.90;1.00
3794;DHT22;1912;51.358;12.282;2023-04-15T19:45:09;9.90;1.00
3794;DHT22;1912;51.358;12.282;2023-04-15T19:47:35;9.90;1.00
3794;DHT22;1912;51.358;12.282;2023-04-15T19:50:01;9.90;1.00
3794;DHT22;1912;51.358;12.282;2023-04-15T19:52:26;9.90;1.00
3794;DHT22;1912;51.358;12.282;2023-04-15T19:54:52;10.00;1.00
3794;DHT22;1912;51.358;12.282;2023-04-15T19:57:17;10.00;1.00
3794;DHT22;1912;51.358;12.282;2023-04-15T19:59:43;10.00;1.00
3794;DHT22;1912;51.358;12.282;2023-04-15T20:02:09;10.00;1.00
3794;DHT22;1912;51.358;12.282;2023-04-15T20:04:34;10.10;1.00
3794;DHT22;1912;51.358;12.282;2023-04-15T20:07:00;10.00;1.00
3794;DHT22;1912;51.358;12.282;2023-04-15T20:09:26;10.00;1.00
3794;DHT22;1912;51.358;12.282;2023-04-15T20:11:51;10.00;1.00
3794;DHT22;1912;51.358;12.282;2023-04-15T20:14:17;10.00;1.00
3794;DHT22;1912;51.358;12.282;2023-04-15T20:16:43;10.00;1.00
3794;DHT22;1912;51.358;12.282;2023-04-15T20:19:08;10.00;1.00
3794;DHT22;1912;51.358;12.282;2023-04-15T20:21:36;10.00;1.00
3794;DHT22;1912;51.358;12.282;2023-04-15T20:24:02;10.00;1.00
3794;DHT22;1912;51.358;12.282;2023-04-15T20:26:29;10.00;1.00
3794;DHT22;1912;51.358;12.282;2023-04-15T20:28:55;10.00;1.00
3794;DHT22;1912;51.358;12.282;2023-04-15T20:31:21;9.90;1.00
3794;DHT22;1912;51.358;12.282;2023-04-15T20:33:47;9.90;1.00
3794;DHT22;1912;51.358;12.282;2023-04-15T20:36:13;9.90;1.00
3794;DHT22;1912;51.358;12.282;2023-04-15T20:38:39;9.90;1.00
3794;DHT22;1912;51.358;12.282;2023-04-15T20:41:04;9.90;1.00
3794;DHT22;1912;51.358;12.282;2023-04-15T20:43:30;9.90;1.00
3794;DHT22;1912;51.358;12.282;2023-04-15T20:45:56;9.80;1.00
3794;DHT22;1912;51.358;12.282;2023-04-15T20:48:22;9.80;1.00
3794;DHT22;1912;51.358;12.282;2023-04-15T20:50:48;9.80;1.00
3794;DHT22;1912;51.358;12.282;2023-04-15T20:53:14;9.80;1.00
3794;DHT22;1912;51.358;12.282;2023-04-15T20:55:41;9.80;1.00
3794;DHT22;1912;51.358;12.282;2023-04-15T20:58:08;9.80;1.00
3794;DHT22;1912;51.358;12.282;2023-04-15T21:00:34;9.80;1.00
3794;DHT22;1912;51.358;12.282;2023-04-15T21:02:59;9.80;1.00
3794;DHT22;1912;51.358;12.282;2023-04-15T21:05:25;9.80;1.00
3794;DHT22;1912;51.358;12.282;2023-04-15T21:07:51;9.80;1.00
3794;DHT22;1912;51.358;12.282;2023-04-15T21:10:18;9.70;1.00
3794;DHT22;1912;51.358;12.282;2023-04-15T21:12:44;9.80;1.00
3794;DHT22;1912;51.358;12.282;2023-04-15T21:15:10;9.70;1.00
3794;DHT22;1912;51.358;12.282;2023-04-15T21:17:37;9.70;1.00
3794;DHT22;1912;51.358;12.282;2023-04-15T21:20:03;9.70;1.00
3794;DHT22;1912;51.358;12.282;2023-04-15T21:22:29;9.60;1.00
3794;DHT22;1912;51.358;12.282;2023-04-15T21:24:56;9.60;1.00
